Terminal Aerodrome Forecast
Issued by NWS Cleveland, OH

Home | Current Version | Previous Version | Graphics & Text | Print | Product List | Glossary Off
Versions: 1 2 3 4 5 6 7 8 9 10 11 12 13 14

000
FTUS41 KCLE 221452 AAA
TAFERI
TAF AMD
KERI 221452Z 2215/2312 22015G25KT P6SM SCT040 BKN120
     FM221515 30015G25KT 2SM -TSRA BR OVC035CB
     FM221600 26014KT P6SM VCTS BKN040CB OVC120
     FM221800 22015G23KT P6SM -TSRA SCT040CB BKN060
     FM222100 25018G30KT P6SM -SHRA VCTS SCT040CB BKN050
     FM230000 28015G30KT P6SM BKN040
     FM230300 32012G21KT P6SM BKN050
     FM230400 32012G22KT P6SM SCT100
     FM231100 29010G20KT P6SM SKC=

USA.gov is the U.S. government's official web portal to all federal, state and local government web resources and services.